createdAt,value
2019-03-22T00:00:41.336Z,-74
2019-03-22T00:03:13.915Z,-74
2019-03-22T00:05:46.864Z,-74
2019-03-22T00:08:20.069Z,-74
2019-03-22T00:10:52.905Z,-74
2019-03-22T00:13:25.817Z,-74
2019-03-22T00:15:58.832Z,-76
2019-03-22T00:18:31.850Z,-77
2019-03-22T00:21:04.852Z,-75
2019-03-22T00:23:37.819Z,-74
2019-03-22T00:26:10.866Z,-74
2019-03-22T00:28:44.021Z,-73
2019-03-22T00:31:17.325Z,-73
2019-03-22T00:33:49.863Z,-73
2019-03-22T00:36:23.320Z,-74
2019-03-22T00:38:55.921Z,-74
2019-03-22T00:41:28.858Z,-75
2019-03-22T00:44:01.766Z,-75
2019-03-22T00:46:33.487Z,-75
2019-03-22T00:49:06.005Z,-78
2019-03-22T00:51:38.857Z,-76
2019-03-22T00:54:11.785Z,-75
2019-03-22T00:56:44.389Z,-73
2019-03-22T00:59:17.315Z,-75
2019-03-22T01:01:49.986Z,-73
2019-03-22T01:04:23.318Z,-76
2019-03-22T01:06:55.913Z,-74
2019-03-22T01:09:28.917Z,-78
2019-03-22T01:12:01.912Z,-74
2019-03-22T01:14:34.852Z,-74
2019-03-22T01:17:07.764Z,-74
2019-03-22T01:19:39.445Z,-74
2019-03-22T01:22:12.137Z,-75
2019-03-22T01:24:44.917Z,-75
2019-03-22T01:27:17.870Z,-73
2019-03-22T01:29:50.829Z,-72
2019-03-22T01:32:23.870Z,-73
2019-03-22T01:34:56.878Z,-72
2019-03-22T01:37:30.050Z,-72
2019-03-22T01:40:03.019Z,-72
2019-03-22T01:42:36.482Z,-72
2019-03-22T01:45:10.765Z,-72
2019-03-22T01:47:42.438Z,-74
2019-03-22T01:50:15.808Z,-73
2019-03-22T01:52:48.777Z,-72
2019-03-22T01:55:20.616Z,-72
2019-03-22T01:57:54.154Z,-72
2019-03-22T02:00:27.010Z,-72
2019-03-22T02:02:59.863Z,-75
2019-03-22T02:05:32.765Z,-72
2019-03-22T02:08:04.955Z,-72
2019-03-22T02:10:37.837Z,-72
2019-03-22T02:13:10.806Z,-72
2019-03-22T02:15:43.687Z,-72
2019-03-22T02:18:15.404Z,-72
2019-03-22T02:20:48.019Z,-72
2019-03-22T02:23:20.871Z,-72
2019-03-22T02:25:53.856Z,-72
2019-03-22T02:28:26.886Z,-72
2019-03-22T02:31:00.313Z,-72
2019-03-22T02:33:32.959Z,-72
2019-03-22T02:36:05.834Z,-72
2019-03-22T02:38:38.837Z,-73
2019-03-22T02:41:11.782Z,-73
2019-03-22T02:43:44.882Z,-73
2019-03-22T02:46:17.890Z,-73
2019-03-22T02:48:50.987Z,-73
2019-03-22T02:51:23.880Z,-73
2019-03-22T02:53:56.873Z,-73
2019-03-22T02:56:29.845Z,-73
2019-03-22T02:59:02.850Z,-73
2019-03-22T03:01:35.783Z,-73
2019-03-22T03:04:07.594Z,-73
2019-03-22T03:06:40.319Z,-72
2019-03-22T03:09:12.905Z,-74
2019-03-22T03:11:45.810Z,-74
2019-03-22T03:14:18.758Z,-74
2019-03-22T03:16:50.465Z,-76
2019-03-22T03:19:23.432Z,-74
2019-03-22T03:21:56.026Z,-75
2019-03-22T03:24:29.015Z,-74
2019-03-22T03:27:01.874Z,-73
2019-03-22T03:29:34.855Z,-72
2019-03-22T03:32:07.821Z,-73
2019-03-22T03:34:40.859Z,-73
2019-03-22T03:37:13.793Z,-74
2019-03-22T03:39:45.642Z,-72
2019-03-22T03:42:18.326Z,-72
2019-03-22T03:44:50.966Z,-73
2019-03-22T03:47:23.895Z,-72
2019-03-22T03:49:56.885Z,-74
2019-03-22T03:52:31.519Z,-74
2019-03-22T03:55:04.002Z,-75
2019-03-22T03:57:36.880Z,-73
2019-03-22T04:00:10.742Z,-74
2019-03-22T04:02:42.446Z,-72
2019-03-22T04:05:14.995Z,-73
2019-03-22T04:07:48.026Z,-72
2019-03-22T04:10:20.895Z,-73
2019-03-22T04:12:53.864Z,-74
2019-03-22T04:15:26.884Z,-75
2019-03-22T04:18:00.319Z,-74
2019-03-22T04:20:32.857Z,-73
2019-03-22T04:23:05.796Z,-73
2019-03-22T04:25:38.791Z,-73
2019-03-22T04:28:11.421Z,-73
2019-03-22T04:30:43.910Z,-74
2019-03-22T04:33:16.835Z,-72
2019-03-22T04:35:49.850Z,-74
2019-03-22T04:39:57.829Z,-73
2019-03-22T04:42:30.811Z,-72
2019-03-22T04:45:03.748Z,-76
2019-03-22T04:47:35.602Z,-75
2019-03-22T04:50:08.910Z,-73
2019-03-22T04:52:41.987Z,-73
2019-03-22T04:55:14.867Z,-74
2019-03-22T04:57:47.816Z,-73
2019-03-22T05:00:20.782Z,-75
2019-03-22T05:02:53.940Z,-75
2019-03-22T05:05:26.886Z,-72
2019-03-22T05:07:59.837Z,-72
2019-03-22T05:10:33.306Z,-73
2019-03-22T05:13:05.900Z,-76
2019-03-22T05:18:16.441Z,-73
2019-03-22T05:20:49.898Z,-72
2019-03-22T05:23:23.378Z,-73
2019-03-22T05:25:56.872Z,-73
2019-03-22T05:28:33.394Z,-73
2019-03-22T05:31:59.929Z,-73
2019-03-22T05:34:33.493Z,-73
2019-03-22T05:37:06.555Z,-73
2019-03-22T05:39:39.881Z,-73
2019-03-22T05:42:13.893Z,-73
2019-03-22T05:44:47.324Z,-73
2019-03-22T05:47:20.858Z,-71
2019-03-22T05:49:54.341Z,-73
2019-03-22T05:52:27.934Z,-73
2019-03-22T05:55:01.344Z,-73
2019-03-22T05:57:34.832Z,-73
2019-03-22T06:00:11.142Z,-72
2019-03-22T06:02:44.549Z,-73
2019-03-22T06:05:18.350Z,-73
2019-03-22T06:07:51.829Z,-73
2019-03-22T06:10:25.329Z,-73
2019-03-22T06:12:58.429Z,-73
2019-03-22T06:15:31.890Z,-73
2019-03-22T06:18:05.374Z,-73
2019-03-22T06:20:38.887Z,-73
2019-03-22T06:23:12.490Z,-73
2019-03-22T06:25:45.869Z,-73
2019-03-22T06:28:19.320Z,-73
2019-03-22T06:30:52.859Z,-73
2019-03-22T06:33:26.332Z,-73
2019-03-22T06:36:00.328Z,-73
2019-03-22T06:38:33.989Z,-73
2019-03-22T06:41:07.370Z,-73
2019-03-22T06:43:40.339Z,-73
2019-03-22T06:46:13.828Z,-73
2019-03-22T06:48:47.322Z,-73
2019-03-22T06:51:20.609Z,-73
2019-03-22T06:53:54.317Z,-73
2019-03-22T06:56:27.799Z,-73
2019-03-22T06:59:01.379Z,-73
2019-03-22T07:01:34.863Z,-73
2019-03-22T07:04:08.320Z,-73
2019-03-22T07:06:41.870Z,-73
2019-03-22T07:09:15.395Z,-73
2019-03-22T07:11:48.879Z,-73
2019-03-22T07:14:23.018Z,-73
2019-03-22T07:16:58.927Z,-73
2019-03-22T07:19:31.909Z,-73
2019-03-22T07:22:05.734Z,-73
2019-03-22T07:24:38.269Z,-73
2019-03-22T07:27:11.451Z,-73
2019-03-22T07:29:44.838Z,-73
2019-03-22T07:32:18.448Z,-73
2019-03-22T07:34:52.289Z,-72
2019-03-22T07:37:25.945Z,-74
2019-03-22T07:39:59.944Z,-73
2019-03-22T07:42:33.816Z,-72
2019-03-22T07:45:07.410Z,-73
2019-03-22T07:47:40.844Z,-72
2019-03-22T07:50:15.335Z,-73
2019-03-22T07:52:48.835Z,-73
2019-03-22T07:55:22.590Z,-76
2019-03-22T07:57:54.753Z,-76
2019-03-22T08:00:31.062Z,-76
2019-03-22T08:03:02.877Z,-77
2019-03-22T08:05:38.285Z,-77
2019-03-22T08:08:11.752Z,-76
2019-03-22T08:10:44.716Z,-76
2019-03-22T08:13:17.764Z,-76
2019-03-22T08:15:49.596Z,-76
2019-03-22T08:18:22.332Z,-76
2019-03-22T08:20:57.500Z,-76
2019-03-22T08:23:30.333Z,-75
2019-03-22T08:26:02.991Z,-76
2019-03-22T08:28:36.037Z,-76
2019-03-22T08:31:09.053Z,-76
2019-03-22T08:33:56.320Z,-76
2019-03-22T08:36:29.336Z,-75
2019-03-22T08:39:01.921Z,-76
2019-03-22T08:41:34.862Z,-76
2019-03-22T08:44:08.306Z,-76
2019-03-22T08:46:40.974Z,-76
2019-03-22T08:49:13.931Z,-76
2019-03-22T08:51:49.643Z,-76
2019-03-22T08:54:22.081Z,-76
2019-03-22T08:56:54.868Z,-77
2019-03-22T08:59:27.830Z,-76
2019-03-22T09:02:00.756Z,-76
2019-03-22T09:04:33.746Z,-76
2019-03-22T09:07:07.050Z,-76
2019-03-22T09:09:41.559Z,-76
2019-03-22T09:12:14.340Z,-76
2019-03-22T09:14:46.993Z,-76
2019-03-22T09:17:21.053Z,-77
2019-03-22T09:19:53.822Z,-76
2019-03-22T09:22:27.301Z,-77
2019-03-22T09:24:59.891Z,-76
2019-03-22T09:27:32.851Z,-76
2019-03-22T09:30:06.301Z,-78
2019-03-22T09:32:39.035Z,-76
2019-03-22T09:35:12.754Z,-76
2019-03-22T09:37:44.469Z,-76
2019-03-22T09:40:17.061Z,-76
2019-03-22T09:42:52.808Z,-76
2019-03-22T09:45:24.824Z,-76
2019-03-22T09:47:57.876Z,-76
2019-03-22T09:50:32.783Z,-77
2019-03-22T09:53:05.842Z,-76
2019-03-22T09:55:38.882Z,-76
2019-03-22T09:58:11.844Z,-76
2019-03-22T10:00:48.270Z,-76
2019-03-22T10:03:19.829Z,-76
2019-03-22T10:05:52.769Z,-76
2019-03-22T10:08:24.475Z,-76
2019-03-22T10:10:57.335Z,-77
2019-03-22T10:13:30.003Z,-77
2019-03-22T10:16:03.312Z,-76
2019-03-22T10:18:36.985Z,-76
2019-03-22T10:21:21.911Z,-76
2019-03-22T10:23:44.322Z,-77
2019-03-22T10:26:16.993Z,-76
2019-03-22T10:28:49.849Z,-77
2019-03-22T10:31:35.995Z,-76
2019-03-22T10:33:57.116Z,-76
2019-03-22T10:36:29.911Z,-77
2019-03-22T10:39:03.360Z,-77
2019-03-22T10:41:59.714Z,-76
2019-03-22T10:44:31.700Z,-76
2019-03-22T10:47:03.658Z,-76
2019-03-22T10:49:35.626Z,-77
2019-03-22T10:52:15.462Z,-77
2019-03-22T10:54:48.065Z,-77
2019-03-22T10:57:21.300Z,-76
2019-03-22T10:59:53.969Z,-76
2019-03-22T11:02:26.884Z,-76
2019-03-22T11:05:02.076Z,-76
2019-03-22T11:07:34.794Z,-76
2019-03-22T11:10:11.826Z,-76
2019-03-22T11:12:44.831Z,-76
2019-03-22T11:15:17.788Z,-76
2019-03-22T11:17:50.769Z,-76
2019-03-22T11:20:23.453Z,-76
2019-03-22T11:22:56.056Z,-76
2019-03-22T11:25:29.048Z,-77
2019-03-22T11:28:01.849Z,-78
2019-03-22T11:30:34.841Z,-77
2019-03-22T11:33:07.744Z,-77
2019-03-22T11:35:39.460Z,-77
2019-03-22T11:38:12.370Z,-76
2019-03-22T11:40:47.001Z,-76
2019-03-22T11:43:19.888Z,-76
2019-03-22T11:45:52.848Z,-76
2019-03-22T11:48:25.748Z,-76
2019-03-22T11:50:57.420Z,-76
2019-03-22T11:53:29.868Z,-76
2019-03-22T11:56:02.816Z,-76
2019-03-22T11:58:35.415Z,-76
2019-03-22T12:01:07.990Z,-76
2019-03-22T12:03:41.462Z,-76
2019-03-22T12:06:14.007Z,-76
2019-03-22T12:08:46.898Z,-75
2019-03-22T12:11:19.811Z,-76
2019-03-22T12:13:52.994Z,-76
2019-03-22T12:16:25.885Z,-76
2019-03-22T12:18:58.835Z,-76
2019-03-22T12:21:31.803Z,-77
2019-03-22T12:24:04.781Z,-76
2019-03-22T12:26:36.599Z,-76
2019-03-22T12:29:09.339Z,-76
2019-03-22T12:31:41.887Z,-76
2019-03-22T12:34:14.809Z,-76
2019-03-22T12:36:47.765Z,-76
2019-03-22T12:39:19.420Z,-77
2019-03-22T12:41:51.896Z,-76
2019-03-22T12:44:24.836Z,-76
2019-03-22T12:46:57.795Z,-76
2019-03-22T12:49:31.980Z,-76
2019-03-22T12:52:05.060Z,-77
2019-03-22T12:54:38.070Z,-76
2019-03-22T12:57:10.884Z,-76
2019-03-22T12:59:43.847Z,-76
2019-03-22T13:02:16.814Z,-75
2019-03-22T13:04:49.786Z,-76
2019-03-22T13:07:21.644Z,-78
2019-03-22T13:09:54.306Z,-76
2019-03-22T13:12:26.988Z,-76
2019-03-22T13:15:00.330Z,-76
2019-03-22T13:17:32.976Z,-76
2019-03-22T13:20:06.814Z,-76
2019-03-22T13:22:39.797Z,-76
2019-03-22T13:25:13.750Z,-76
2019-03-22T13:27:45.497Z,-76
2019-03-22T13:30:34.773Z,-76
2019-03-22T13:33:06.921Z,-76
2019-03-22T13:35:39.816Z,-77
2019-03-22T13:38:12.832Z,-76
2019-03-22T13:40:45.769Z,-76
2019-03-22T13:43:18.638Z,-76
2019-03-22T13:45:51.304Z,-76
2019-03-22T13:48:23.891Z,-75
2019-03-22T13:50:56.867Z,-78
2019-03-22T13:53:30.380Z,-75
2019-03-22T13:56:03.338Z,-75
2019-03-22T13:58:38.737Z,-75
2019-03-22T14:01:10.421Z,-77
2019-03-22T14:03:43.514Z,-75
2019-03-22T14:06:16.740Z,-75
2019-03-22T14:08:48.375Z,-75
2019-03-22T14:11:20.911Z,-77
2019-03-22T14:13:53.852Z,-74
2019-03-22T14:16:26.787Z,-75
2019-03-22T14:19:00.124Z,-75
2019-03-22T14:21:32.982Z,-75
2019-03-22T14:24:05.881Z,-75
2019-03-22T14:26:38.891Z,-75
2019-03-22T14:29:11.863Z,-75
2019-03-22T14:31:44.785Z,-75
2019-03-22T14:34:16.613Z,-75
2019-03-22T14:36:49.284Z,-75
2019-03-22T14:39:21.984Z,-78
2019-03-22T14:41:54.857Z,-75
2019-03-22T14:44:28.374Z,-75
2019-03-22T14:47:01.126Z,-75
2019-03-22T14:49:34.024Z,-75
2019-03-22T14:52:06.889Z,-75
2019-03-22T14:54:40.273Z,-77
2019-03-22T14:57:12.848Z,-76
2019-03-22T14:59:46.291Z,-75
2019-03-22T15:02:18.869Z,-75
2019-03-22T15:04:54.392Z,-75
2019-03-22T15:07:26.880Z,-75
2019-03-22T15:09:59.874Z,-75
2019-03-22T15:12:32.799Z,-75
2019-03-22T15:15:25.714Z,-75
2019-03-22T15:18:16.262Z,-75
2019-03-22T15:21:15.307Z,-75
2019-03-22T15:24:05.770Z,-77
2019-03-22T15:27:08.491Z,-77
2019-03-22T15:29:59.613Z,-77
2019-03-22T15:32:47.307Z,-77
2019-03-22T15:35:39.837Z,-77
2019-03-22T15:38:35.602Z,-77
2019-03-22T15:41:08.829Z,-75
2019-03-22T15:44:04.233Z,-77
2019-03-22T15:46:36.995Z,-76
2019-03-22T15:49:10.310Z,-77
2019-03-22T15:51:42.910Z,-77
2019-03-22T15:54:15.829Z,-77
2019-03-22T15:56:48.782Z,-76
2019-03-22T15:59:21.752Z,-77
2019-03-22T16:01:54.589Z,-76
2019-03-22T16:04:27.304Z,-76
2019-03-22T16:07:00.040Z,-77
2019-03-22T16:09:33.322Z,-77
2019-03-22T16:13:04.309Z,-74
2019-03-22T16:15:37.619Z,-73
2019-03-22T16:18:10.292Z,-74
2019-03-22T16:20:42.909Z,-74
2019-03-22T16:23:16.294Z,-74
2019-03-22T16:25:49.262Z,-74
2019-03-22T16:28:21.991Z,-75
2019-03-22T16:30:54.850Z,-75
2019-03-22T16:33:27.821Z,-76
2019-03-22T16:36:00.877Z,-77
2019-03-22T16:38:34.717Z,-74
2019-03-22T16:41:06.375Z,-76
2019-03-22T16:43:39.268Z,-76
2019-03-22T16:46:14.084Z,-76
2019-03-22T16:48:46.529Z,-76
2019-03-22T16:51:19.486Z,-75
2019-03-22T16:53:52.334Z,-75
2019-03-22T16:56:25.042Z,-76
2019-03-22T16:58:58.041Z,-76
2019-03-22T17:01:30.898Z,-75
2019-03-22T17:04:04.615Z,-75
2019-03-22T17:06:37.961Z,-75
2019-03-22T17:09:11.292Z,-75
2019-03-22T17:11:44.301Z,-76
2019-03-22T17:14:16.889Z,-76
2019-03-22T17:16:50.765Z,-75
2019-03-22T17:19:22.583Z,-75
2019-03-22T17:21:55.292Z,-75
2019-03-22T17:24:27.879Z,-76
2019-03-22T17:27:00.820Z,-76
2019-03-22T17:29:33.727Z,-75
2019-03-22T17:32:06.351Z,-76
2019-03-22T17:34:38.973Z,-75
2019-03-22T17:37:11.801Z,-75
2019-03-22T17:39:44.714Z,-76
2019-03-22T17:42:17.554Z,-75
2019-03-22T17:44:50.261Z,-76
2019-03-22T17:47:23.046Z,-76
2019-03-22T17:49:55.864Z,-75
2019-03-22T17:52:28.810Z,-76
2019-03-22T17:55:01.735Z,-75
2019-03-22T17:57:33.625Z,-75
2019-03-22T18:00:06.352Z,-75
2019-03-22T18:02:38.765Z,-75
2019-03-22T18:05:11.899Z,-75
2019-03-22T18:07:44.842Z,-75
2019-03-22T18:10:18.003Z,-75
2019-03-22T18:12:50.853Z,-75
2019-03-22T18:15:23.837Z,-76
2019-03-22T18:17:56.809Z,-75
2019-03-22T18:20:29.771Z,-76
2019-03-22T18:23:01.619Z,-75
2019-03-22T18:25:34.433Z,-75
2019-03-22T18:28:06.996Z,-75
2019-03-22T18:30:39.842Z,-76
2019-03-22T18:33:12.976Z,-77
2019-03-22T18:35:46.292Z,-75
2019-03-22T18:38:18.997Z,-75
2019-03-22T18:40:51.867Z,-75
2019-03-22T18:43:25.310Z,-76
2019-03-22T18:45:58.636Z,-75
2019-03-22T18:48:30.439Z,-75
2019-03-22T18:51:03.393Z,-75
2019-03-22T18:53:36.003Z,-76
2019-03-22T18:56:08.976Z,-76
2019-03-22T18:58:41.897Z,-75
2019-03-22T19:01:15.059Z,-75
2019-03-22T19:03:47.878Z,-75
2019-03-22T19:06:21.858Z,-76
2019-03-22T19:08:54.866Z,-76
2019-03-22T19:11:27.818Z,-75
2019-03-22T19:14:00.772Z,-75
2019-03-22T19:16:32.576Z,-75
2019-03-22T19:19:05.306Z,-75
2019-03-22T19:21:38.374Z,-75
2019-03-22T19:24:11.259Z,-75
2019-03-22T19:26:44.002Z,-76
2019-03-22T19:29:16.868Z,-75
2019-03-22T19:31:50.121Z,-75
2019-03-22T19:34:22.889Z,-75
2019-03-22T19:36:55.849Z,-78
2019-03-22T19:39:28.865Z,-76
2019-03-22T19:42:01.872Z,-78
2019-03-22T19:44:34.800Z,-78
2019-03-22T19:47:07.827Z,-78
2019-03-22T19:49:40.797Z,-78
2019-03-22T19:52:13.744Z,-79
2019-03-22T19:54:45.459Z,-78
2019-03-22T19:57:18.056Z,-78
2019-03-22T19:59:51.070Z,-78
2019-03-22T20:02:24.047Z,-77
2019-03-22T20:05:04.426Z,-77
2019-03-22T20:07:31.754Z,-77
2019-03-22T20:10:04.147Z,-77
2019-03-22T20:12:36.914Z,-77
2019-03-22T20:15:10.301Z,-77
2019-03-22T20:17:42.990Z,-78
2019-03-22T20:20:15.878Z,-78
2019-03-22T20:22:49.003Z,-78
2019-03-22T20:25:21.906Z,-76
2019-03-22T20:27:54.830Z,-76
2019-03-22T20:30:27.770Z,-77
2019-03-22T20:33:00.980Z,-78
2019-03-22T20:35:34.316Z,-77
2019-03-22T20:38:06.913Z,-78
2019-03-22T20:40:39.850Z,-76
2019-03-22T20:43:12.790Z,-77
2019-03-22T20:45:45.106Z,-77
2019-03-22T20:48:17.865Z,-77
2019-03-22T20:50:51.010Z,-77
2019-03-22T20:53:23.855Z,-77
2019-03-22T20:55:56.844Z,-77
2019-03-22T20:58:29.783Z,-77
2019-03-22T21:01:01.468Z,-77
2019-03-22T21:03:34.001Z,-77
2019-03-22T21:06:06.887Z,-76
2019-03-22T21:08:39.865Z,-76
2019-03-22T21:11:12.843Z,-76
2019-03-22T21:13:45.785Z,-76
2019-03-22T21:16:17.611Z,-76
2019-03-22T21:18:50.317Z,-76
2019-03-22T21:21:28.001Z,-76
2019-03-22T21:23:57.790Z,-76
2019-03-22T21:26:29.626Z,-76
2019-03-22T21:29:02.313Z,-76
2019-03-22T21:31:35.029Z,-75
2019-03-22T21:34:08.375Z,-76
2019-03-22T21:36:41.320Z,-76
2019-03-22T21:39:14.326Z,-75
2019-03-22T21:41:47.366Z,-76
2019-03-22T21:44:20.076Z,-76
2019-03-22T21:46:54.379Z,-76
2019-03-22T21:49:27.372Z,-76
2019-03-22T21:52:00.296Z,-76
2019-03-22T21:54:33.285Z,-76
2019-03-22T21:57:06.494Z,-77
2019-03-22T21:59:39.813Z,-76
2019-03-22T22:02:12.993Z,-76
2019-03-22T22:04:46.839Z,-76
2019-03-22T22:07:20.318Z,-76
2019-03-22T22:09:53.305Z,-76
2019-03-22T22:12:26.781Z,-76
2019-03-22T22:15:00.070Z,-77
2019-03-22T22:17:33.874Z,-78
2019-03-22T22:20:07.320Z,-78
2019-03-22T22:22:40.906Z,-78
2019-03-22T22:25:14.668Z,-78
2019-03-22T22:27:47.821Z,-77
2019-03-22T22:30:20.995Z,-77
2019-03-22T22:32:54.319Z,-77
2019-03-22T22:35:27.316Z,-78
2019-03-22T22:38:03.140Z,-77
2019-03-22T22:40:36.324Z,-77
2019-03-22T22:43:09.537Z,-78
2019-03-22T22:45:43.312Z,-77
2019-03-22T22:48:16.606Z,-77
2019-03-22T22:50:50.307Z,-78
2019-03-22T22:53:23.282Z,-77
2019-03-22T22:55:56.838Z,-78
2019-03-22T22:58:30.079Z,-78
2019-03-22T23:01:03.326Z,-78
2019-03-22T23:03:36.919Z,-76
2019-03-22T23:06:10.053Z,-77
2019-03-22T23:08:43.073Z,-76
2019-03-22T23:11:16.446Z,-76
2019-03-22T23:13:49.325Z,-78
2019-03-22T23:16:22.310Z,-76
2019-03-22T23:18:55.833Z,-76
2019-03-22T23:21:28.757Z,-77
2019-03-22T23:24:00.411Z,-76
2019-03-22T23:26:33.518Z,-78
2019-03-22T23:29:06.326Z,-77
2019-03-22T23:31:39.064Z,-76
2019-03-22T23:34:11.986Z,-77
2019-03-22T23:36:44.906Z,-76
2019-03-22T23:39:17.903Z,-76
2019-03-22T23:41:50.830Z,-77
2019-03-22T23:44:23.921Z,-78
2019-03-22T23:46:56.963Z,-76
2019-03-22T23:49:30.026Z,-78
2019-03-22T23:52:03.317Z,-77
2019-03-22T23:54:36.316Z,-76
2019-03-22T23:57:09.117Z,-77
2019-03-22T23:59:42.314Z,-77
